Time;durP1;ratioP1;P1;durP2;ratioP2;P2;SDS_P1;SDS_P2;PMS_P1;PMS_P2;Temp;Humidity;BMP_temperature;BMP_pressure;BME280_temperature;BME280_humidity;BME280_pressure;Samples;Min_cycle;Max_cycle;Signal;HPM_P1;HPM_P2
2022/10/02 00:01:32;;;;;;;14.10;2.40;;;11.90;99.90;;;;;;5090001;28;20051;-70
2022/10/02 00:03:59;;;;;;;9.20;2.27;;;11.90;99.90;;;;;;5089835;28;20406;-69
2022/10/02 00:06:30;;;;;;;11.02;2.20;;;11.90;99.90;;;;;;5089597;28;20328;-72
2022/10/02 00:08:59;;;;;;;10.95;2.30;;;11.90;99.90;;;;;;5089104;28;20044;-71
2022/10/02 00:11:56;;;;;;;12.25;2.45;;;11.90;99.90;;;;;;5073100;28;20062;-70
2022/10/02 00:14:24;;;;;;;11.43;2.30;;;11.80;99.90;;;;;;4976178;28;20045;-69
2022/10/02 00:16:53;;;;;;;15.55;3.65;;;11.80;99.90;;;;;;4991698;28;20117;-71
2022/10/02 00:19:19;;;;;;;8.48;2.05;;;11.80;99.90;;;;;;4992231;28;20045;-71
2022/10/02 00:22:02;;;;;;;9.63;1.88;;;11.80;99.90;;;;;;4992348;28;20647;-70
2022/10/02 00:24:38;;;;;;;7.90;2.10;;;11.70;99.90;;;;;;5008562;28;20049;-70
2022/10/02 00:27:14;;;;;;;6.82;1.95;;;11.70;99.90;;;;;;4991852;28;20085;-70
2022/10/02 00:29:51;;;;;;;9.23;1.90;;;11.70;99.90;;;;;;4991804;28;20087;-70
2022/10/02 00:33:01;;;;;;;10.40;1.88;;;11.70;99.90;;;;;;5025074;28;20042;-70
2022/10/02 00:35:42;;;;;;;10.15;1.90;;;11.60;99.90;;;;;;4975088;28;20045;-70
2022/10/02 00:38:07;;;;;;;9.18;2.33;;;11.60;99.90;;;;;;4991332;28;20457;-70
2022/10/02 00:40:57;;;;;;;9.55;2.00;;;11.60;99.90;;;;;;4991974;28;20041;-70
2022/10/02 00:43:29;;;;;;;12.20;1.73;;;11.60;99.90;;;;;;4975394;28;20038;-70
2022/10/02 00:46:27;;;;;;;6.25;1.60;;;11.50;99.90;;;;;;4991974;28;20042;-70
2022/10/02 00:49:07;;;;;;;7.78;1.70;;;11.60;99.90;;;;;;4975329;28;20117;-70
2022/10/02 00:51:50;;;;;;;7.53;1.70;;;11.60;99.90;;;;;;5088470;28;20402;-72
2022/10/02 00:54:56;;;;;;;9.07;1.80;;;11.60;99.90;;;;;;5089156;28;20489;-70
2022/10/02 00:57:34;;;;;;;9.63;1.88;;;11.60;99.90;;;;;;5070805;28;20042;-69
2022/10/02 01:00:16;;;;;;;8.65;2.03;;;11.60;99.90;;;;;;5071226;28;20036;-69
2022/10/02 01:02:41;;;;;;;8.55;1.90;;;11.70;99.90;;;;;;5077626;28;20093;-71
2022/10/02 01:05:08;;;;;;;9.80;1.95;;;11.60;99.90;;;;;;5089054;28;20040;-72
2022/10/02 01:07:40;;;;;;;8.18;1.83;;;11.70;99.90;;;;;;5088832;28;20036;-70
2022/10/02 01:10:08;;;;;;;6.07;1.50;;;11.70;99.90;;;;;;5088097;28;20096;-72
2022/10/02 01:12:34;;;;;;;8.27;1.63;;;11.70;99.90;;;;;;5088123;28;20040;-70
2022/10/02 01:15:00;;;;;;;6.22;1.55;;;11.70;99.90;;;;;;5088482;28;20444;-72
2022/10/02 01:17:30;;;;;;;8.68;2.60;;;11.70;99.90;;;;;;5071613;28;20073;-71
2022/10/02 01:19:57;;;;;;;9.85;2.10;;;11.70;99.90;;;;;;5120832;27;20402;-72
2022/10/02 01:22:38;;;;;;;11.90;2.70;;;11.80;99.90;;;;;;5088521;28;20453;-72
2022/10/02 01:25:06;;;;;;;12.63;2.85;;;11.80;99.90;;;;;;5088718;28;20468;-72
2022/10/02 01:27:33;;;;;;;7.35;2.00;;;11.80;99.90;;;;;;5087963;28;20473;-70
2022/10/02 01:30:09;;;;;;;13.90;2.83;;;11.80;99.90;;;;;;5076852;28;20075;-71
2022/10/02 01:32:39;;;;;;;21.00;2.83;;;11.80;99.90;;;;;;5069982;28;20398;-72
2022/10/02 01:35:06;;;;;;;16.17;2.70;;;11.80;99.90;;;;;;5071135;28;20032;-71
2022/10/02 01:37:36;;;;;;;14.85;3.33;;;11.80;99.90;;;;;;5070878;28;20374;-71
2022/10/02 01:40:08;;;;;;;11.25;2.85;;;11.80;99.90;;;;;;5070668;28;20504;-71
2022/10/02 01:42:35;;;;;;;13.20;3.08;;;11.80;99.90;;;;;;5069622;28;20115;-69
2022/10/02 01:45:04;;;;;;;17.92;3.38;;;11.80;99.90;;;;;;5068366;28;20118;-71
2022/10/02 01:47:46;;;;;;;12.98;2.55;;;11.80;99.90;;;;;;5070417;28;20044;-70
2022/10/02 01:50:35;;;;;;;13.00;2.85;;;11.80;99.90;;;;;;5070794;28;20039;-72
2022/10/02 01:53:25;;;;;;;9.48;2.25;;;11.80;99.90;;;;;;5053262;28;20056;-71
2022/10/02 01:56:18;;;;;;;11.90;2.70;;;11.80;99.90;;;;;;5069600;28;20040;-70
2022/10/02 01:58:49;;;;;;;11.80;2.25;;;11.70;99.90;;;;;;5054240;28;20036;-72
2022/10/02 02:01:35;;;;;;;15.43;2.73;;;11.70;99.90;;;;;;5070042;28;20075;-70
2022/10/02 02:04:16;;;;;;;11.60;2.30;;;11.70;99.90;;;;;;5068898;28;20416;-69
2022/10/02 02:07:07;;;;;;;10.52;2.97;;;11.70;99.90;;;;;;5068818;28;20549;-72
2022/10/02 02:09:44;;;;;;;14.35;2.95;;;11.60;99.90;;;;;;5070629;28;20044;-71
2022/10/02 02:12:22;;;;;;;11.70;2.47;;;11.60;99.90;;;;;;5069378;28;20106;-72
2022/10/02 02:14:59;;;;;;;13.88;2.50;;;11.60;99.90;;;;;;5069943;28;20070;-69
2022/10/02 02:17:30;;;;;;;12.32;2.72;;;11.50;99.90;;;;;;5071184;28;20036;-70
2022/10/02 02:20:02;;;;;;;9.43;2.03;;;11.50;99.90;;;;;;5070883;28;20402;-70
2022/10/02 02:22:35;;;;;;;14.20;2.45;;;11.50;99.90;;;;;;5071017;28;20047;-71
2022/10/02 02:25:07;;;;;;;11.02;2.38;;;11.50;99.90;;;;;;5051566;28;20059;-70
2022/10/02 02:27:39;;;;;;;14.13;2.42;;;11.50;99.90;;;;;;5053328;28;20042;-72
2022/10/02 02:30:10;;;;;;;15.90;2.90;;;11.50;99.90;;;;;;5051617;28;20083;-72
2022/10/02 02:32:45;;;;;;;14.60;2.40;;;11.40;99.90;;;;;;5069766;28;20505;-72
2022/10/02 02:35:18;;;;;;;16.40;2.88;;;11.50;99.90;;;;;;5069456;28;20457;-71
2022/10/02 02:37:47;;;;;;;11.95;2.30;;;11.50;99.90;;;;;;5070074;28;20497;-71
2022/10/02 02:40:18;;;;;;;12.15;1.90;;;11.50;99.90;;;;;;5070559;28;20036;-70
2022/10/02 02:42:56;;;;;;;14.75;2.85;;;11.50;99.90;;;;;;5071101;28;20038;-70
2022/10/02 02:45:27;;;;;;;13.05;2.50;;;11.50;99.90;;;;;;5070743;28;20062;-70
2022/10/02 02:47:57;;;;;;;15.68;2.20;;;11.50;99.90;;;;;;5070303;28;20047;-71
2022/10/02 02:50:40;;;;;;;8.63;1.95;;;11.50;99.90;;;;;;5070241;28;20428;-70
2022/10/02 02:53:33;;;;;;;11.55;2.05;;;11.50;99.90;;;;;;5071346;28;20486;-70
2022/10/02 02:56:03;;;;;;;7.47;1.83;;;11.50;99.90;;;;;;5070421;28;20055;-70
2022/10/02 02:58:53;;;;;;;11.57;1.75;;;11.50;99.90;;;;;;5073785;28;20032;-69
2022/10/02 03:01:18;;;;;;;8.77;1.50;;;11.50;99.90;;;;;;5074508;28;20402;-72
2022/10/02 03:03:44;;;;;;;8.50;1.73;;;11.50;99.90;;;;;;5074511;28;20052;-73
2022/10/02 03:06:17;;;;;;;7.70;1.48;;;11.50;99.90;;;;;;5074420;28;20044;-70
2022/10/02 03:08:44;;;;;;;7.13;1.48;;;11.50;99.90;;;;;;5073426;28;20051;-69
2022/10/02 03:11:32;;;;;;;7.78;1.65;;;11.40;99.90;;;;;;5072762;28;20044;-72
2022/10/02 03:14:19;;;;;;;6.85;1.60;;;11.40;99.90;;;;;;5072534;28;20036;-71
2022/10/02 03:16:50;;;;;;;10.55;1.70;;;11.40;99.90;;;;;;5074273;28;20466;-71
2022/10/02 03:19:46;;;;;;;12.17;1.93;;;11.40;99.90;;;;;;5072368;28;20031;-70
2022/10/02 03:22:12;;;;;;;12.32;2.17;;;11.40;99.90;;;;;;5072372;28;20077;-70
2022/10/02 03:25:04;;;;;;;9.23;1.88;;;11.40;99.90;;;;;;5073068;28;20548;-70
2022/10/02 03:27:40;;;;;;;9.88;1.48;;;11.40;99.90;;;;;;5073705;28;20044;-70
2022/10/02 03:30:11;;;;;;;10.73;2.00;;;11.40;99.90;;;;;;5072057;28;20395;-71
2022/10/02 03:32:40;;;;;;;8.32;1.48;;;11.40;99.90;;;;;;5089629;28;20429;-70
2022/10/02 03:35:12;;;;;;;9.32;1.50;;;11.30;99.90;;;;;;5073046;28;20044;-72
2022/10/02 03:37:48;;;;;;;6.63;1.50;;;11.30;99.90;;;;;;5073766;28;20386;-69
2022/10/02 03:40:14;;;;;;;8.63;1.60;;;11.30;99.90;;;;;;5070567;28;20036;-70
2022/10/02 03:42:39;;;;;;;9.52;1.48;;;11.30;99.90;;;;;;5073798;28;20039;-72
2022/10/02 03:45:06;;;;;;;7.40;1.60;;;11.30;99.90;;;;;;5072250;28;20040;-71
2022/10/02 03:47:31;;;;;;;10.15;1.73;;;11.20;99.90;;;;;;5073152;28;20934;-70
2022/10/02 03:49:57;;;;;;;9.10;1.77;;;11.20;99.90;;;;;;5056344;28;20063;-71
2022/10/02 03:52:23;;;;;;;9.98;1.40;;;11.20;99.90;;;;;;5072156;28;20159;-72
2022/10/02 03:55:00;;;;;;;8.80;1.58;;;11.20;99.90;;;;;;5054455;28;20043;-70
2022/10/02 03:57:27;;;;;;;9.85;1.90;;;11.20;99.90;;;;;;5072737;28;20085;-71
2022/10/02 03:59:56;;;;;;;10.25;1.80;;;11.20;99.90;;;;;;5072218;28;20040;-69
2022/10/02 04:02:40;;;;;;;8.15;1.48;;;11.10;99.90;;;;;;5071993;28;20063;-73
2022/10/02 04:05:18;;;;;;;12.23;2.65;;;11.10;99.90;;;;;;5072667;28;20118;-70
2022/10/02 04:07:46;;;;;;;8.93;1.48;;;11.10;99.90;;;;;;5072302;28;20052;-70
2022/10/02 04:10:12;;;;;;;13.23;2.25;;;11.10;99.90;;;;;;5072395;28;20047;-69
2022/10/02 04:12:43;;;;;;;8.30;1.77;;;11.10;99.90;;;;;;5071294;28;20044;-70
2022/10/02 04:15:27;;;;;;;9.98;1.65;;;11.10;99.90;;;;;;5072103;28;20044;-72
2022/10/02 04:18:00;;;;;;;11.18;1.90;;;11.10;99.90;;;;;;5072826;28;20032;-71
2022/10/02 04:20:36;;;;;;;9.40;2.42;;;11.00;99.90;;;;;;5072115;28;20040;-70
2022/10/02 04:23:30;;;;;;;10.60;2.00;;;11.00;99.90;;;;;;5071674;28;20388;-71
2022/10/02 04:26:06;;;;;;;12.23;2.78;;;11.00;99.90;;;;;;5072293;28;20475;-71
2022/10/02 04:28:38;;;;;;;11.68;2.10;;;11.00;99.90;;;;;;5072002;28;20036;-71
2022/10/02 04:31:10;;;;;;;14.13;2.30;;;10.90;99.90;;;;;;5072259;28;20067;-72
2022/10/02 04:33:36;;;;;;;11.80;2.10;;;10.90;99.90;;;;;;5070299;28;20040;-72
2022/10/02 04:36:20;;;;;;;11.82;2.20;;;10.90;99.90;;;;;;5072198;28;20038;-70
2022/10/02 04:38:46;;;;;;;11.52;2.88;;;10.90;99.90;;;;;;5071160;28;20589;-70
2022/10/02 04:41:32;;;;;;;12.82;2.15;;;10.90;99.90;;;;;;5055711;28;20131;-70
2022/10/02 04:44:20;;;;;;;11.80;2.65;;;10.90;99.90;;;;;;5068531;28;20044;-69
2022/10/02 04:47:09;;;;;;;10.18;2.20;;;10.90;99.90;;;;;;5071422;28;20097;-70
2022/10/02 04:50:02;;;;;;;11.27;2.30;;;10.90;99.90;;;;;;5054989;28;20427;-71
2022/10/02 04:52:50;;;;;;;;;;;10.90;99.90;;;;;;5056308;28;20053;-70
2022/10/02 04:55:53;;;;;;;20.65;2.67;;;10.90;99.90;;;;;;5070000;28;19923;-70
2022/10/02 04:58:18;;;;;;;;;;;10.80;99.90;;;;;;5054044;28;20123;-71
2022/10/02 05:01:02;;;;;;;14.60;2.10;;;10.80;99.90;;;;;;5071348;28;19999;-71
2022/10/02 05:03:51;;;;;;;14.35;2.20;;;10.80;99.90;;;;;;5070723;28;20048;-70
2022/10/02 05:06:46;;;;;;;10.85;2.22;;;10.90;99.90;;;;;;5071457;28;20032;-71
2022/10/02 05:09:20;;;;;;;11.88;2.20;;;10.80;99.90;;;;;;5070313;28;20040;-71
2022/10/02 05:11:49;;;;;;;15.45;2.35;;;10.80;99.90;;;;;;5070910;28;20035;-72
2022/10/02 05:14:25;;;;;;;15.55;3.17;;;10.80;99.90;;;;;;5070797;28;20056;-71
2022/10/02 05:16:58;;;;;;;12.57;2.78;;;10.80;99.90;;;;;;5070849;28;20394;-71
2022/10/02 05:19:42;;;;;;;;;;;10.80;99.90;;;;;;5071706;28;20068;-70
2022/10/02 05:22:17;;;;;;;12.63;2.67;;;10.80;99.90;;;;;;5070941;28;19920;-73
2022/10/02 05:24:54;;;;;;;15.60;2.47;;;10.80;99.90;;;;;;5053778;28;20048;-72
2022/10/02 05:27:57;;;;;;;12.95;2.80;;;10.80;99.90;;;;;;5068809;28;20044;-71
2022/10/02 05:30:23;;;;;;;14.90;2.55;;;10.80;99.90;;;;;;5054292;28;20044;-69
2022/10/02 05:33:31;;;;;;;12.75;2.85;;;10.80;99.90;;;;;;5055110;28;20047;-70
2022/10/02 05:36:24;;;;;;;13.88;3.05;;;10.80;99.90;;;;;;5055444;28;20105;-70
2022/10/02 05:39:01;;;;;;;18.27;3.88;;;10.80;99.90;;;;;;5071811;28;20043;-70
2022/10/02 05:41:44;;;;;;;15.43;2.78;;;10.70;99.90;;;;;;5053646;28;20055;-70
2022/10/02 05:44:15;;;;;;;12.57;3.50;;;10.80;99.90;;;;;;5055681;28;20126;-70
2022/10/02 05:47:01;;;;;;;16.27;2.80;;;10.80;99.90;;;;;;5072333;28;20035;-70
2022/10/02 05:49:36;;;;;;;9.77;2.17;;;10.80;99.90;;;;;;5071519;28;20458;-70
2022/10/02 05:52:23;;;;;;;16.70;2.38;;;10.80;99.90;;;;;;5071683;28;20162;-70
2022/10/02 05:55:12;;;;;;;10.02;2.00;;;10.80;99.90;;;;;;5071411;28;20444;-70
2022/10/02 05:57:46;;;;;;;15.35;2.40;;;10.80;99.90;;;;;;4970793;28;20038;-70
2022/10/02 06:00:33;;;;;;;13.85;2.38;;;10.80;99.90;;;;;;4970929;28;20058;-70
2022/10/02 06:03:20;;;;;;;13.25;2.90;;;10.80;99.90;;;;;;4955489;28;20174;-70
2022/10/02 06:05:59;;;;;;;17.85;2.85;;;10.80;99.90;;;;;;4970501;28;20159;-70
2022/10/02 06:08:40;;;;;;;13.15;2.78;;;10.80;99.90;;;;;;4970621;28;20596;-70
2022/10/02 06:11:22;;;;;;;18.05;3.97;;;10.80;99.90;;;;;;4970939;28;20543;-70
2022/10/02 06:13:55;;;;;;;14.57;2.70;;;10.90;99.90;;;;;;4967081;28;20096;-70
2022/10/02 06:16:27;;;;;;;17.50;2.63;;;10.90;99.90;;;;;;4952771;28;20078;-70
2022/10/02 06:18:57;;;;;;;20.17;3.33;;;10.90;99.90;;;;;;4971604;28;20038;-70
2022/10/02 06:21:31;;;;;;;16.70;3.10;;;11.00;99.90;;;;;;4970415;28;20054;-70
2022/10/02 06:24:03;;;;;;;14.25;2.50;;;11.00;99.90;;;;;;4975447;28;20093;-70
2022/10/02 06:27:03;;;;;;;15.25;2.47;;;11.10;99.90;;;;;;4967873;28;20034;-71
2022/10/02 06:29:39;;;;;;;14.75;2.33;;;11.10;99.90;;;;;;4967183;28;20145;-70
2022/10/02 06:32:29;;;;;;;16.58;2.60;;;11.20;99.90;;;;;;4972310;28;20046;-72
2022/10/02 06:34:55;;;;;;;12.90;2.30;;;11.20;99.90;;;;;;5033366;28;20080;-70
2022/10/02 06:37:38;;;;;;;13.05;2.40;;;11.30;99.90;;;;;;5072152;28;20445;-71
2022/10/02 06:40:31;;;;;;;11.98;2.22;;;11.40;99.90;;;;;;5074071;28;20055;-72
2022/10/02 06:43:02;;;;;;;12.50;2.47;;;11.40;99.90;;;;;;5072928;28;20093;-70
2022/10/02 06:45:46;;;;;;;11.48;2.40;;;11.50;99.90;;;;;;5073978;28;20086;-70
2022/10/02 06:48:52;;;;;;;15.05;3.63;;;11.60;99.90;;;;;;5072928;28;20122;-70
2022/10/02 06:51:30;;;;;;;14.98;2.40;;;11.70;99.90;;;;;;5074609;28;20040;-70
2022/10/02 06:54:42;;;;;;;14.68;2.40;;;11.80;99.90;;;;;;5055995;28;20044;-71
2022/10/02 06:57:32;;;;;;;15.75;2.22;;;11.90;99.90;;;;;;5012114;28;20037;-70
2022/10/02 07:00:04;;;;;;;14.88;2.45;;;12.00;99.90;;;;;;5013526;28;20125;-70
2022/10/02 07:03:02;;;;;;;12.38;2.63;;;12.00;99.90;;;;;;4996102;28;20076;-69
2022/10/02 07:05:45;;;;;;;15.50;2.45;;;12.10;99.90;;;;;;5010848;28;20061;-70
2022/10/02 07:08:20;;;;;;;17.05;2.25;;;12.20;99.90;;;;;;5012846;28;20124;-69
2022/10/02 07:11:03;;;;;;;13.70;2.15;;;12.30;99.90;;;;;;5012497;28;20413;-71
2022/10/02 07:13:47;;;;;;;9.98;2.30;;;12.40;99.90;;;;;;5012231;28;20642;-70
2022/10/02 07:16:42;;;;;;;10.88;1.92;;;12.50;99.90;;;;;;5011987;28;20038;-69
2022/10/02 07:19:37;;;;;;;16.67;2.78;;;12.70;99.90;;;;;;4995449;28;20411;-71
2022/10/02 07:22:08;;;;;;;13.10;1.95;;;12.80;99.90;;;;;;4997556;28;20057;-70
2022/10/02 07:24:36;;;;;;;17.65;2.85;;;13.00;99.90;;;;;;5013523;28;20049;-71
2022/10/02 07:27:01;;;;;;;14.73;2.15;;;13.20;99.90;;;;;;4997401;28;20532;-71
2022/10/02 07:29:58;;;;;;;10.23;1.98;;;13.40;99.90;;;;;;5011618;28;20053;-70
2022/10/02 07:32:48;;;;;;;15.38;2.65;;;13.50;99.90;;;;;;5073790;28;20090;-71
2022/10/02 07:35:32;;;;;;;14.10;2.30;;;13.40;99.90;;;;;;5073425;28;20036;-70
2022/10/02 07:38:06;;;;;;;13.38;2.20;;;13.40;99.90;;;;;;5057189;28;20032;-70
2022/10/02 07:40:50;;;;;;;12.40;2.17;;;13.30;99.90;;;;;;5073038;28;21116;-71
2022/10/02 07:43:43;;;;;;;14.43;2.42;;;13.30;99.90;;;;;;5070866;28;20043;-71
2022/10/02 07:46:18;;;;;;;13.63;2.53;;;13.30;99.90;;;;;;5057157;28;20076;-71
2022/10/02 07:48:53;;;;;;;15.80;1.95;;;13.30;99.90;;;;;;5056785;28;20144;-71
2022/10/02 07:51:46;;;;;;;15.98;2.75;;;13.30;99.90;;;;;;5073898;28;20044;-70
2022/10/02 07:54:12;;;;;;;12.35;2.08;;;13.40;99.90;;;;;;5073461;28;20429;-70
2022/10/02 07:56:38;;;;;;;12.60;2.45;;;13.50;99.90;;;;;;5072701;28;20043;-71
2022/10/02 07:59:10;;;;;;;14.32;2.50;;;13.60;99.90;;;;;;5073356;28;20085;-71
2022/10/02 08:01:40;;;;;;;10.82;2.05;;;13.60;99.90;;;;;;5073690;28;20367;-71
2022/10/02 08:04:28;;;;;;;16.83;3.53;;;13.70;99.90;;;;;;5073249;28;20059;-71
2022/10/02 08:06:59;;;;;;;15.13;2.20;;;13.80;99.90;;;;;;5072132;28;20044;-71
2022/10/02 08:09:36;;;;;;;15.70;2.55;;;13.90;99.90;;;;;;5072516;28;20040;-71
2022/10/02 08:12:28;;;;;;;12.38;2.22;;;14.00;99.90;;;;;;5056278;28;20042;-70
2022/10/02 08:14:56;;;;;;;9.85;2.58;;;14.10;99.90;;;;;;5056037;28;20056;-71
2022/10/02 08:17:30;;;;;;;14.70;2.47;;;14.30;99.90;;;;;;5073297;28;20040;-71
2022/10/02 08:20:03;;;;;;;13.35;2.83;;;14.50;99.90;;;;;;5055188;28;20056;-70
2022/10/02 08:22:45;;;;;;;10.18;2.13;;;14.60;99.90;;;;;;5072959;28;20445;-71
2022/10/02 08:25:27;;;;;;;9.13;2.20;;;14.80;99.90;;;;;;5088003;28;20044;-71
2022/10/02 08:28:07;;;;;;;12.60;3.35;;;14.80;99.90;;;;;;5056259;28;20040;-71
2022/10/02 08:30:33;;;;;;;11.90;1.95;;;14.90;99.90;;;;;;5085510;28;20094;-72
2022/10/02 08:32:59;;;;;;;10.68;1.67;;;15.00;99.90;;;;;;5090002;28;20059;-71
2022/10/02 08:35:53;;;;;;;11.10;2.00;;;15.10;99.90;;;;;;5072742;28;20075;-71
2022/10/02 08:38:48;;;;;;;11.65;2.33;;;15.20;99.90;;;;;;5071744;28;20123;-71
2022/10/02 08:41:32;;;;;;;11.85;1.75;;;15.40;99.90;;;;;;5072328;28;20036;-72
2022/10/02 08:44:32;;;;;;;10.35;1.60;;;15.50;99.90;;;;;;5087687;28;20046;-71
2022/10/02 08:47:32;;;;;;;8.25;1.40;;;15.50;99.90;;;;;;5088715;28;20470;-71
2022/10/02 08:50:28;;;;;;;11.48;1.80;;;15.70;99.90;;;;;;5089814;28;20471;-70
2022/10/02 08:53:09;;;;;;;8.95;2.40;;;15.80;99.90;;;;;;5071508;28;20061;-71
2022/10/02 08:56:20;;;;;;;12.25;2.05;;;15.90;99.90;;;;;;5070612;28;20032;-71
2022/10/02 08:58:51;;;;;;;6.50;1.35;;;15.90;99.90;;;;;;5052821;28;20067;-71
2022/10/02 09:01:42;;;;;;;12.48;1.92;;;16.00;99.90;;;;;;5088318;28;20040;-71
2022/10/02 09:04:48;;;;;;;10.82;2.28;;;16.10;99.90;;;;;;5068934;28;20127;-72
2022/10/02 09:07:46;;;;;;;11.23;1.90;;;16.20;99.90;;;;;;5122849;27;20043;-72
2022/10/02 09:10:51;;;;;;;11.30;1.95;;;16.30;99.90;;;;;;5089375;28;20075;-72
2022/10/02 09:13:28;;;;;;;11.85;1.95;;;16.50;99.90;;;;;;5086160;28;20110;-72
2022/10/02 09:16:11;;;;;;;11.63;2.00;;;16.70;99.90;;;;;;5087410;28;20032;-71
2022/10/02 09:18:53;;;;;;;13.68;1.88;;;16.60;99.90;;;;;;5087511;28;20082;-71
2022/10/02 09:21:51;;;;;;;9.73;1.88;;;16.60;99.90;;;;;;5087644;28;20040;-71
2022/10/02 09:24:32;;;;;;;10.98;2.08;;;16.60;99.90;;;;;;5078996;28;20051;-71
2022/10/02 09:27:21;;;;;;;12.60;2.05;;;16.60;99.90;;;;;;5086719;28;20040;-71
2022/10/02 09:29:52;;;;;;;10.75;2.03;;;16.90;99.90;;;;;;5070787;28;20619;-72
2022/10/02 09:32:55;;;;;;;11.75;1.65;;;16.90;99.90;;;;;;5086798;28;20069;-72
2022/10/02 09:36:00;;;;;;;11.40;1.83;;;16.90;99.90;;;;;;5088616;28;20534;-72
2022/10/02 09:39:15;;;;;;;16.13;2.38;;;16.80;99.90;;;;;;5086753;28;20055;-70
2022/10/02 09:42:04;;;;;;;13.35;1.90;;;16.50;99.90;;;;;;5087730;28;20431;-70
2022/10/02 09:44:47;;;;;;;10.23;1.98;;;16.40;99.90;;;;;;5117747;27;20083;-71
2022/10/02 09:47:52;;;;;;;13.57;2.10;;;16.50;99.90;;;;;;5070247;28;20050;-70
2022/10/02 09:50:37;;;;;;;11.85;1.70;;;16.70;99.90;;;;;;5088904;28;20075;-71
2022/10/02 09:53:29;;;;;;;7.22;1.55;;;16.70;99.90;;;;;;5088353;28;20028;-71
2022/10/02 09:56:27;;;;;;;13.23;1.93;;;16.90;99.90;;;;;;5069565;28;20103;-71
2022/10/02 09:59:19;;;;;;;14.27;2.13;;;16.90;99.90;;;;;;5086230;28;20300;-70
2022/10/02 10:02:03;;;;;;;8.45;1.80;;;16.90;99.90;;;;;;5087929;28;20039;-70
2022/10/02 10:04:47;;;;;;;9.88;1.95;;;17.00;99.90;;;;;;5087632;28;20056;-71
2022/10/02 10:07:56;;;;;;;9.23;2.28;;;17.00;99.90;;;;;;5087479;28;20036;-72
2022/10/02 10:10:37;;;;;;;9.85;2.97;;;17.20;99.90;;;;;;5086684;28;20116;-70
2022/10/02 10:13:08;;;;;;;8.60;1.92;;;17.10;99.90;;;;;;5085783;28;20044;-72
2022/10/02 10:15:56;;;;;;;9.48;1.70;;;17.40;99.90;;;;;;5087652;28;20479;-71
2022/10/02 10:18:49;;;;;;;10.52;2.33;;;17.20;99.90;;;;;;5078189;28;20044;-70
2022/10/02 10:21:33;;;;;;;10.13;1.90;;;17.40;99.90;;;;;;5086899;28;20115;-70
2022/10/02 10:24:30;;;;;;;10.25;1.70;;;17.70;99.90;;;;;;5086952;28;20136;-71
2022/10/02 10:27:07;;;;;;;9.75;1.75;;;18.00;99.90;;;;;;5071272;28;20043;-71
2022/10/02 10:29:52;;;;;;;10.57;1.77;;;18.30;99.90;;;;;;5087041;28;20094;-72
2022/10/02 10:33:07;;;;;;;8.88;1.50;;;18.50;99.90;;;;;;5087964;28;20048;-72
2022/10/02 10:36:01;;;;;;;10.38;2.10;;;18.90;99.90;;;;;;4974269;28;20376;-71
2022/10/02 10:38:52;;;;;;;11.95;2.17;;;18.80;99.90;;;;;;4990966;28;20042;-72
2022/10/02 10:41:30;;;;;;;8.27;1.40;;;18.80;99.90;;;;;;4990501;28;20038;-71
2022/10/02 10:44:32;;;;;;;6.82;1.38;;;18.70;99.90;;;;;;4990989;28;20038;-70
2022/10/02 10:47:18;;;;;;;9.57;1.60;;;18.20;99.90;;;;;;4984250;28;20108;-71
2022/10/02 10:50:06;;;;;;;9.18;1.83;;;18.20;99.90;;;;;;4990413;28;20424;-72
2022/10/02 10:52:56;;;;;;;12.77;2.40;;;18.50;99.90;;;;;;4990088;28;20050;-71
2022/10/02 10:55:36;;;;;;;9.38;2.00;;;18.70;99.90;;;;;;4990326;28;20026;-71
2022/10/02 10:58:39;;;;;;;8.75;1.70;;;18.80;99.90;;;;;;4973852;28;20196;-72
2022/10/02 11:01:17;;;;;;;8.25;1.52;;;19.00;99.90;;;;;;4974493;28;20038;-72
2022/10/02 11:04:05;;;;;;;7.38;1.67;;;19.00;99.90;;;;;;4973923;28;20046;-71
2022/10/02 11:06:41;;;;;;;7.97;2.03;;;18.40;99.90;;;;;;5022377;28;20065;-72
2022/10/02 11:09:41;;;;;;;9.50;1.90;;;18.20;99.90;;;;;;4974515;28;20045;-72
2022/10/02 11:12:31;;;;;;;11.23;2.10;;;18.00;99.90;;;;;;5070030;28;20048;-72
2022/10/02 11:15:12;;;;;;;10.80;1.88;;;17.70;99.90;;;;;;5087965;28;20047;-72
2022/10/02 11:17:59;;;;;;;9.00;1.60;;;17.80;99.90;;;;;;5088548;28;20036;-71
2022/10/02 11:20:53;;;;;;;11.88;1.80;;;18.10;99.90;;;;;;5091522;28;20044;-71
2022/10/02 11:23:31;;;;;;;11.02;2.63;;;18.20;99.90;;;;;;5090551;28;20489;-71
2022/10/02 11:26:28;;;;;;;11.55;2.03;;;18.50;99.90;;;;;;5088007;28;20043;-71
2022/10/02 11:29:10;;;;;;;9.90;2.05;;;18.50;99.90;;;;;;5087725;28;20044;-71
2022/10/02 11:31:58;;;;;;;12.52;2.00;;;18.30;99.90;;;;;;5091887;28;20123;-71
2022/10/02 11:34:42;;;;;;;13.63;3.00;;;18.10;99.90;;;;;;5090619;28;20115;-72
2022/10/02 11:37:37;;;;;;;11.55;2.72;;;17.90;99.90;;;;;;5090480;28;20040;-72
2022/10/02 11:40:37;;;;;;;7.55;2.17;;;17.90;99.90;;;;;;5088674;28;20043;-71
2022/10/02 11:43:21;;;;;;;12.60;3.47;;;17.70;99.90;;;;;;5090245;28;20439;-72
2022/10/02 11:45:58;;;;;;;8.13;1.58;;;17.70;99.90;;;;;;5089386;28;20042;-71
2022/10/02 11:49:02;;;;;;;9.68;2.03;;;17.50;99.90;;;;;;5090242;28;20191;-71
2022/10/02 11:51:38;;;;;;;11.82;2.00;;;17.20;99.90;;;;;;5089856;28;20126;-72
2022/10/02 11:54:28;;;;;;;10.02;2.08;;;17.00;99.90;;;;;;5073086;28;20040;-72
2022/10/02 11:57:28;;;;;;;10.55;1.83;;;17.00;99.90;;;;;;5089833;28;20032;-72
2022/10/02 12:00:32;;;;;;;8.25;1.60;;;17.00;99.90;;;;;;5105138;28;20033;-72
2022/10/02 12:03:35;;;;;;;11.57;1.65;;;17.00;99.90;;;;;;5089224;28;20051;-72
2022/10/02 12:06:14;;;;;;;7.03;1.42;;;16.90;99.90;;;;;;5090478;28;20115;-73
2022/10/02 12:09:12;;;;;;;9.70;1.60;;;16.90;99.90;;;;;;5064864;28;20036;-73
2022/10/02 12:11:40;;;;;;;10.40;1.88;;;16.90;99.90;;;;;;5089837;28;20132;-72
2022/10/02 12:14:32;;;;;;;10.20;2.20;;;16.90;99.90;;;;;;5089302;28;20036;-72
2022/10/02 12:17:29;;;;;;;6.63;1.92;;;16.90;99.90;;;;;;5089191;28;20113;-72
2022/10/02 12:29:24;;;;;;;8.20;1.52;;;16.80;99.90;;;;;;5086924;28;20052;-72
2022/10/02 12:32:07;;;;;;;11.13;1.90;;;16.80;99.90;;;;;;5090414;28;20120;-72
2022/10/02 12:34:51;;;;;;;11.88;1.77;;;16.80;99.90;;;;;;5090353;28;20047;-73
2022/10/02 12:37:48;;;;;;;9.73;2.10;;;16.80;99.90;;;;;;5088535;28;20403;-72
2022/10/02 12:40:26;;;;;;;11.68;2.20;;;17.00;99.90;;;;;;5083154;28;20122;-72
2022/10/02 12:43:26;;;;;;;7.90;1.80;;;17.10;99.90;;;;;;5088609;28;20047;-70
2022/10/02 12:46:26;;;;;;;8.73;1.60;;;17.20;99.90;;;;;;5090555;28;20090;-72
2022/10/02 12:49:11;;;;;;;10.32;2.20;;;17.30;99.90;;;;;;5086038;28;20159;-73
2022/10/02 12:52:33;;;;;;;8.65;1.50;;;17.30;99.90;;;;;;5085325;28;20087;-72
2022/10/02 12:55:35;;;;;;;11.40;1.77;;;16.90;99.90;;;;;;5086772;28;20062;-71
2022/10/02 12:58:41;;;;;;;12.85;2.00;;;16.70;99.90;;;;;;5089290;28;20550;-71
2022/10/02 13:01:31;;;;;;;13.27;2.05;;;16.40;99.90;;;;;;5072565;28;20119;-74
2022/10/02 13:04:36;;;;;;;12.52;1.98;;;16.50;99.90;;;;;;5072927;28;20028;-71
2022/10/02 13:07:22;;;;;;;10.07;2.10;;;16.60;99.90;;;;;;5085801;28;20143;-71
2022/10/02 13:10:02;;;;;;;11.25;2.20;;;16.70;99.90;;;;;;5072287;28;20055;-71
2022/10/02 13:12:49;;;;;;;14.45;1.90;;;16.70;99.90;;;;;;5084375;28;20051;-71
2022/10/02 13:15:33;;;;;;;12.02;1.90;;;16.80;99.90;;;;;;5070699;28;20048;-72
2022/10/02 13:18:26;;;;;;;8.98;1.52;;;16.90;99.90;;;;;;5068914;28;20044;-72
2022/10/02 13:21:02;;;;;;;15.27;2.28;;;16.90;99.90;;;;;;5070055;28;20059;-71
2022/10/02 13:23:46;;;;;;;11.32;2.22;;;16.90;99.90;;;;;;5089181;28;20482;-72
2022/10/02 13:26:20;;;;;;;10.13;1.63;;;16.80;99.90;;;;;;5085276;28;20078;-73
2022/10/02 13:29:21;;;;;;;8.18;1.50;;;16.60;99.90;;;;;;5088630;28;20135;-73
2022/10/02 13:31:56;;;;;;;6.32;1.35;;;16.50;99.90;;;;;;5071669;28;20135;-74
2022/10/02 13:34:43;;;;;;;7.05;1.60;;;16.40;99.90;;;;;;5073190;28;20047;-73
2022/10/02 13:37:14;;;;;;;9.38;1.90;;;16.80;99.90;;;;;;5050071;28;20040;-70
2022/10/02 13:39:53;;;;;;;10.68;3.15;;;16.90;99.90;;;;;;5069934;28;20132;-72
2022/10/02 13:42:38;;;;;;;9.15;1.50;;;16.90;99.90;;;;;;5066584;28;20047;-72
2022/10/02 13:45:30;;;;;;;9.77;1.90;;;16.90;99.90;;;;;;5070066;28;20032;-72
2022/10/02 13:48:24;;;;;;;7.72;1.42;;;16.80;99.90;;;;;;5072928;28;20563;-72
2022/10/02 13:51:05;;;;;;;10.82;1.92;;;17.00;99.90;;;;;;5072888;28;20406;-72
2022/10/02 13:54:01;;;;;;;11.63;1.67;;;17.00;99.90;;;;;;5069434;28;20071;-72
2022/10/02 13:56:48;;;;;;;8.52;1.45;;;16.90;99.90;;;;;;5072093;28;20509;-71
2022/10/02 13:59:23;;;;;;;7.70;1.35;;;16.80;99.90;;;;;;5072363;28;20375;-72
2022/10/02 14:02:03;;;;;;;8.35;1.48;;;16.70;99.90;;;;;;5068350;28;20040;-73
2022/10/02 14:04:46;;;;;;;7.57;1.50;;;16.70;99.90;;;;;;5071522;28;20119;-71
2022/10/02 14:07:48;;;;;;;9.60;1.45;;;16.60;99.90;;;;;;5071914;28;20088;-71